Perrine, Florida
Current Conditions -  °F | °C
As of 9:53 AM on Saturday 25 Oct 2014 (Local Time) from KTMB Reporting Station
Clear Clear  
Wind Chill: 78°   Ceiling: Unl
Heat Index: 80°   Visibility: 10mi
Dew Point: 63°   Wind: 12mph
Humidity: 60%   Direction: 360°N
Pressure: 29.93"   Gusts: NA
Location:  25.61°N, 80.35°W
Report Text: KTMB 251353Z 36010KT 10SM CLR 26/17 A2993 RMK AO2 SLP134 T02560172
Loading
Personal Weather Stations






























Interactive Weather Map
Tropical Storm Tracking
New forecast layout! Learn more

10-Day Weather Forecast

Advertisements
Track Severe Weather on mobile